Track Пьянков Даниил

Time Latitude Longitude Accuracy (66% radius in meters) Altitude (meters) Speed (km/hour) Bearing (degrees) Battery (%) GPS flag
09:54:43 60.253632 29.795977 0 166 1.2404805421829 82.279998779297 1 delete
09:54:22 60.253582 29.795827 0 171.3 0.57134169340134 246.05000305176 1 delete
09:54:08 60.253515 29.795955 0 173.2 0.68818360567093 256.14001464844 1 delete
09:53:32 60.253467 29.796113 0 176.6 0.26765555143356 229.99000549316 1 delete
09:53:05 60.253505 29.796277 0 176.8 1.6326988935471 232.16999816895 1 delete
09:52:57 60.253527 29.796465 0 177.1 3.0080366134644 266.85000610352 1 delete
09:52:54 60.253508 29.796713 0 177.2 4.9125089645386 267.94000244141 1 delete
09:52:51 60.253512 29.796995 0 177.5 3.6601896286011 289.75 1 delete
09:52:48 60.253483 29.797210 0 177.7 2.1530830860138 295.26998901367 1 delete
09:52:44 60.253457 29.797398 0 178.3 4.4343318939209 278.48001098633 1 delete
09:52:42 60.253442 29.797583 0 178.2 4.4369053840637 277.20001220703 1 delete
09:52:39 60.253415 29.797840 0 178.7 4.6906638145447 283.70001220703 1 delete
09:52:36 60.253368 29.798062 0 178.6 5.0550870895386 316.33999633789 1 delete
09:52:34 60.253295 29.798188 0 178.3 4.6427946090698 311.07998657227 1 delete
09:52:32 60.253238 29.798345 0 178.3 5.0046443939209 293.61999511719 1 delete
09:52:30 60.253210 29.798532 0 178.3 4.6530890464783 291.60998535156 1 delete
09:52:27 60.253198 29.798777 0 178.2 4.7714748382568 235.55999755859 1 delete
09:52:25 60.253253 29.798933 0 177.6 5.0432481765747 236.85000610352 1 delete
09:52:23 60.253312 29.799100 0 177.4 5.3556847572327 259.35998535156 1 delete
09:52:21 60.253333 29.799285 0 177 5.2465634346008 277.42001342773 1 delete
09:52:19 60.253315 29.799465 0 176.8 5.124059677124 284.25 1 delete
09:52:16 60.253275 29.799723 0 176.2 4.737503528595 283.55999755859 1 delete
09:52:14 60.253227 29.799898 0 175 5.445246219635 277.10998535156 1 delete
09:52:11 60.253205 29.800168 0 174.1 4.79154920578 276.73001098633 1 delete
09:52:08 60.253190 29.800392 0 173.3 3.7054853439331 251.30999755859 1 delete
09:52:05 60.253237 29.800548 0 172.3 4.0735116004944 211.97999572754 1 delete
09:52:02 60.253355 29.800612 0 173.1 3.8161506652832 189.39999389648 1 delete
09:51:59 60.253442 29.800705 0 173.7 3.5217294692993 220.28999328613 1 delete
09:51:56 60.253505 29.800840 0 173 3.0831861495972 229.58000183105 1 delete
09:51:53 60.253558 29.801018 0 172 4.1429991722107 242.21000671387 1 delete
09:51:50 60.253607 29.801232 0 171.4 3.8820350170135 233.97999572754 1 delete
09:51:47 60.253672 29.801398 0 171 3.0888481140137 226.0299987793 1 delete
09:51:43 60.253710 29.801567 0 170.3 2.7403810024261 235.86000061035 1 delete
09:51:39 60.253760 29.801742 0 170.5 2.3059556484222 197.61000061035 1 delete
09:51:32 60.253848 29.801793 0 168.8 3.0939953327179 201.39999389648 1 delete
09:51:29 60.253892 29.801957 0 169.9 6.038206577301 208.11999511719 1 delete
09:51:27 60.253982 29.802093 0 169.7 7.004340171814 219.80999755859 1 delete
09:51:25 60.254068 29.802280 0 169.3 5.9532771110535 229.82000732422 1 delete
09:51:23 60.254125 29.802462 0 169 5.316565990448 259.11999511719 1 delete
09:51:20 60.254147 29.802712 0 168.2 4.7905197143555 243.46000671387 1 delete
09:51:18 60.254210 29.802882 0 167.7 4.2593264579773 224.86000061035 1 delete
09:51:14 60.254290 29.803077 0 166.5 4.0462312698364 226.41000366211 1 delete
09:51:11 60.254333 29.803260 0 166.2 3.9371101856232 268.95999145508 1 delete
09:51:08 60.254307 29.803488 0 166.3 3.7245299816132 312.55999755859 1 delete
09:51:05 60.254245 29.803670 0 166.3 3.2159843444824 302.95999145508 1 delete
09:51:01 60.254238 29.803875 0 167 2.6765556335449 275.54998779297 1 delete
09:50:57 60.254213 29.804095 0 166.1 2.5694932937622 281.13000488281 1 delete
09:50:53 60.254202 29.804323 0 165.6 2.6714084148407 279.42001342773 1 delete
09:50:40 60.254268 29.804492 0 166.6 2.2153644561768 208.2200012207 1 delete
09:50:36 60.254358 29.804585 0 168 1.7263783216476 211.10000610352 1 delete